Decoded Metar for LIMC (MILANO MALPENSA in ITALY) (IATA:MXP) | Meteo·Mobile Aviation Weather
aviador You're here:

LIMC Decoded Metar

MILANO MALPENSA in ITALY
Report Time2019-05-21 17:20:00
UTC Time2019-05-21 17:50:01
Flight Rules vfr VFR
Wind210° at 11 kt
W.Decomp.*RWY 17: 8.5 kt HW 6.9 kt RCW
Visibility9999 m
Phenomena:N/A
Clouds:N/A
Expected CloudBase > 3,600 ft AGL from Temp-Dew spread
CeilingNone
Temp22°C (ISA +8)
Dew Point13°C (57% RH)
AAT19.0°C
QNH1009 hPa
Density Alt2,005 ft
Elevation692 ft
Report Wrong Elevation
Raw Report
METAR LIMC 211720Z 21011KT CAVOK 22/13 Q1009 NOSIG=

Extra information for LIMC:More info

Metar Taf Metar & Taf Last 4 Metars F.Rules Stats Wind Profile Meteogram Temp Stats Airport Information Weather charts Add Link Nearby VenuesMetar ALERT Operation Metar Decoded Social comments